BNS1001 LRIA-LRTR
Flight info
| Callsign | BNS1001 |
|---|---|
| Flight time | 0h 55m |
| Altitude | 38000 |
| Route | ABOLO DCT DOKUD DCT VASIS |
| Aircraft | A20N/M-SDE2E3FGHIRWXY/LB1 |
Departure
| Time | 2026-04-14 20:35 |
|---|---|
| Airport | Iaşi International Airport (LRIA) |
Arrival
| Time | 2026-04-14 21:30 |
|---|---|
| Airport | Timișoara Traian Vuia International Airport (LRTR) |
| Time | Latitude | Longitude | Altitude | Speed | Heading |
|---|---|---|---|---|---|
| 2026-04-14 20:01 | 47.17705 | 27.61864 | 388 ft | 0 kts | 236° |
| 2026-04-14 20:23 | 47.17705 | 27.61863 | 388 ft | 0 kts | 236° |
| 2026-04-14 20:25 | 47.17706 | 27.61867 | 388 ft | 4 kts | 236° |
| 2026-04-14 20:25 | 47.17713 | 27.61910 | 388 ft | 3 kts | 311° |
| 2026-04-14 20:26 | 47.17696 | 27.61917 | 388 ft | 4 kts | 360° |
| 2026-04-14 20:26 | 47.17682 | 27.61919 | 388 ft | 0 kts | 342° |
| 2026-04-14 20:30 | 47.17691 | 27.61914 | 388 ft | 8 kts | 341° |
| 2026-04-14 20:30 | 47.17765 | 27.61949 | 390 ft | 12 kts | 62° |
| 2026-04-14 20:30 | 47.17771 | 27.61965 | 390 ft | 0 kts | 64° |
| 2026-04-14 20:30 | 47.17780 | 27.61993 | 390 ft | 13 kts | 64° |
| 2026-04-14 20:31 | 47.17845 | 27.62047 | 389 ft | 9 kts | 329° |
| 2026-04-14 20:31 | 47.17933 | 27.61963 | 392 ft | 21 kts | 330° |
| 2026-04-14 20:31 | 47.18073 | 27.61866 | 395 ft | 27 kts | 334° |
| 2026-04-14 20:31 | 47.18304 | 27.61691 | 400 ft | 47 kts | 332° |
| 2026-04-14 20:32 | 47.18537 | 27.61512 | 403 ft | 5 kts | 316° |
| 2026-04-14 20:32 | 47.18580 | 27.61478 | 404 ft | 10 kts | 2° |
| 2026-04-14 20:32 | 47.18589 | 27.61486 | 404 ft | 4 kts | 42° |
| 2026-04-14 20:32 | 47.18592 | 27.61490 | 404 ft | 4 kts | 42° |
| 2026-04-14 20:33 | 47.18609 | 27.61537 | 404 ft | 8 kts | 76° |
| 2026-04-14 20:33 | 47.18601 | 27.61574 | 403 ft | 1 kts | 140° |
| 2026-04-14 20:34 | 47.18593 | 27.61584 | 403 ft | 16 kts | 143° |
| 2026-04-14 20:34 | 47.18253 | 27.61874 | 392 ft | 98 kts | 149° |
| 2026-04-14 20:35 | 47.17469 | 27.62584 | 402 ft | 164 kts | 149° |
| 2026-04-14 20:35 | 47.16399 | 27.63481 | 935 ft | 183 kts | 151° |
| 2026-04-14 20:35 | 47.15290 | 27.64410 | 1953 ft | 189 kts | 152° |
| 2026-04-14 20:35 | 47.14015 | 27.64887 | 2707 ft | 200 kts | 188° |
| 2026-04-14 20:36 | 47.12798 | 27.63852 | 3540 ft | 210 kts | 231° |
| 2026-04-14 20:36 | 47.12235 | 27.61841 | 4418 ft | 218 kts | 255° |
| 2026-04-14 20:36 | 47.11964 | 27.59630 | 5291 ft | 223 kts | 261° |
| 2026-04-14 20:36 | 47.11748 | 27.57334 | 6152 ft | 230 kts | 260° |
| 2026-04-14 20:37 | 47.11279 | 27.54991 | 6792 ft | 249 kts | 246° |
| 2026-04-14 20:37 | 47.10425 | 27.52733 | 7582 ft | 258 kts | 238° |
| 2026-04-14 20:37 | 47.09339 | 27.50495 | 8169 ft | 279 kts | 233° |
| 2026-04-14 20:37 | 47.08121 | 27.48234 | 9120 ft | 284 kts | 232° |
| 2026-04-14 20:38 | 47.06881 | 27.45984 | 10106 ft | 290 kts | 233° |
| 2026-04-14 20:38 | 47.05561 | 27.43578 | 10725 ft | 310 kts | 233° |
| 2026-04-14 20:38 | 47.04185 | 27.41043 | 11149 ft | 333 kts | 233° |
| 2026-04-14 20:38 | 47.02721 | 27.38334 | 11886 ft | 342 kts | 233° |
| 2026-04-14 20:39 | 47.01261 | 27.35564 | 12893 ft | 344 kts | 237° |
| 2026-04-14 20:39 | 47.00036 | 27.32543 | 13902 ft | 346 kts | 246° |
| 2026-04-14 20:39 | 46.99130 | 27.29270 | 14779 ft | 348 kts | 254° |
| 2026-04-14 20:39 | 46.98423 | 27.25860 | 15635 ft | 353 kts | 255° |
| 2026-04-14 20:40 | 46.97699 | 27.22398 | 16504 ft | 358 kts | 255° |
| 2026-04-14 20:40 | 46.97212 | 27.20082 | 17062 ft | 361 kts | 255° |
| 2026-04-14 20:40 | 46.96207 | 27.15340 | 18208 ft | 368 kts | 254° |
| 2026-04-14 20:40 | 46.95702 | 27.12965 | 18723 ft | 371 kts | 255° |
| 2026-04-14 20:41 | 46.94928 | 27.09337 | 19476 ft | 375 kts | 255° |
| 2026-04-14 20:41 | 46.94146 | 27.05678 | 20229 ft | 379 kts | 255° |
| 2026-04-14 20:41 | 46.93094 | 27.00772 | 21194 ft | 384 kts | 255° |
| 2026-04-14 20:41 | 46.92550 | 26.98236 | 21676 ft | 387 kts | 255° |
| 2026-04-14 20:42 | 46.91748 | 26.94502 | 22351 ft | 391 kts | 255° |
| 2026-04-14 20:42 | 46.90927 | 26.90687 | 23018 ft | 395 kts | 255° |
| 2026-04-14 20:42 | 46.89256 | 26.82944 | 24222 ft | 403 kts | 255° |
| 2026-04-14 20:43 | 46.88408 | 26.79030 | 24771 ft | 405 kts | 255° |
| 2026-04-14 20:43 | 46.87554 | 26.75089 | 25240 ft | 408 kts | 255° |
| 2026-04-14 20:43 | 46.86693 | 26.71124 | 25665 ft | 411 kts | 254° |
| 2026-04-14 20:43 | 46.85822 | 26.67122 | 26110 ft | 414 kts | 254° |
| 2026-04-14 20:44 | 46.84946 | 26.63103 | 26538 ft | 417 kts | 254° |
| 2026-04-14 20:44 | 46.84062 | 26.59057 | 26960 ft | 419 kts | 254° |
| 2026-04-14 20:44 | 46.83171 | 26.54984 | 27368 ft | 422 kts | 254° |
| 2026-04-14 20:44 | 46.82273 | 26.50889 | 27762 ft | 425 kts | 253° |
| 2026-04-14 20:45 | 46.81364 | 26.46756 | 27976 ft | 432 kts | 253° |
| 2026-04-14 20:45 | 46.80432 | 26.42523 | 28004 ft | 443 kts | 253° |
| 2026-04-14 20:45 | 46.79477 | 26.38191 | 28007 ft | 454 kts | 253° |
| 2026-04-14 20:46 | 46.77506 | 26.29294 | 28003 ft | 472 kts | 253° |
| 2026-04-14 20:46 | 46.75457 | 26.20083 | 28010 ft | 482 kts | 253° |
| 2026-04-14 20:47 | 46.73388 | 26.10832 | 28009 ft | 465 kts | 253° |
| 2026-04-14 20:47 | 46.72403 | 26.06450 | 28009 ft | 444 kts | 253° |
| 2026-04-14 20:47 | 46.71462 | 26.02266 | 28008 ft | 425 kts | 253° |
| 2026-04-14 20:48 | 46.69628 | 25.94116 | 28013 ft | 428 kts | 253° |
| 2026-04-14 20:48 | 46.67772 | 25.85902 | 28010 ft | 426 kts | 253° |
| 2026-04-14 20:49 | 46.65907 | 25.77687 | 28010 ft | 426 kts | 253° |
| 2026-04-14 20:49 | 46.64040 | 25.69496 | 28007 ft | 426 kts | 252° |
| 2026-04-14 20:50 | 46.62179 | 25.61362 | 28004 ft | 426 kts | 252° |
| 2026-04-14 20:50 | 46.60300 | 25.53177 | 27998 ft | 426 kts | 252° |
| 2026-04-14 20:51 | 46.58412 | 25.44987 | 27996 ft | 427 kts | 252° |
| 2026-04-14 20:51 | 46.57468 | 25.40903 | 27995 ft | 426 kts | 252° |
| 2026-04-14 20:51 | 46.56522 | 25.36818 | 27991 ft | 427 kts | 252° |
| 2026-04-14 20:51 | 46.55574 | 25.32732 | 27991 ft | 427 kts | 252° |
| 2026-04-14 20:52 | 46.54624 | 25.28648 | 27986 ft | 427 kts | 252° |
| 2026-04-14 20:52 | 46.53674 | 25.24571 | 27977 ft | 426 kts | 252° |
| 2026-04-14 20:52 | 46.52721 | 25.20487 | 27979 ft | 427 kts | 252° |
| 2026-04-14 20:52 | 46.51767 | 25.16406 | 27974 ft | 427 kts | 252° |
| 2026-04-14 20:53 | 46.50814 | 25.12334 | 27971 ft | 426 kts | 252° |
| 2026-04-14 20:53 | 46.49858 | 25.08262 | 27968 ft | 427 kts | 252° |
| 2026-04-14 20:53 | 46.48896 | 25.04170 | 27964 ft | 426 kts | 252° |
| 2026-04-14 20:53 | 46.47951 | 25.00156 | 27964 ft | 426 kts | 252° |
| 2026-04-14 20:54 | 46.46993 | 24.96084 | 27956 ft | 426 kts | 252° |
| 2026-04-14 20:54 | 46.46084 | 24.91997 | 27853 ft | 423 kts | 255° |
| 2026-04-14 20:54 | 46.45303 | 24.87897 | 27438 ft | 420 kts | 256° |
| 2026-04-14 20:54 | 46.44565 | 24.83813 | 26888 ft | 417 kts | 256° |
| 2026-04-14 20:55 | 46.43827 | 24.79764 | 26317 ft | 413 kts | 256° |
| 2026-04-14 20:55 | 46.43082 | 24.75752 | 25750 ft | 409 kts | 256° |
| 2026-04-14 20:55 | 46.42334 | 24.71797 | 25196 ft | 405 kts | 256° |
| 2026-04-14 20:55 | 46.41585 | 24.67877 | 24647 ft | 402 kts | 256° |
| 2026-04-14 20:56 | 46.40840 | 24.64001 | 24165 ft | 396 kts | 256° |
| 2026-04-14 20:56 | 46.40103 | 24.60181 | 23974 ft | 392 kts | 256° |
| 2026-04-14 20:56 | 46.39362 | 24.56345 | 23916 ft | 397 kts | 256° |
| 2026-04-14 20:56 | 46.38617 | 24.52493 | 23918 ft | 397 kts | 256° |
| 2026-04-14 20:57 | 46.37870 | 24.48639 | 23918 ft | 397 kts | 256° |
| 2026-04-14 20:57 | 46.37123 | 24.44791 | 23919 ft | 397 kts | 256° |
| 2026-04-14 20:57 | 46.36374 | 24.40945 | 23913 ft | 397 kts | 256° |
| 2026-04-14 20:57 | 46.35633 | 24.37149 | 23917 ft | 397 kts | 256° |
| 2026-04-14 20:58 | 46.34880 | 24.33296 | 23920 ft | 397 kts | 256° |
| 2026-04-14 20:58 | 46.34127 | 24.29456 | 23921 ft | 397 kts | 256° |
| 2026-04-14 20:58 | 46.33374 | 24.25616 | 23920 ft | 397 kts | 255° |
| 2026-04-14 20:58 | 46.32618 | 24.21774 | 23924 ft | 397 kts | 255° |
| 2026-04-14 20:59 | 46.31862 | 24.17934 | 23927 ft | 397 kts | 255° |
| 2026-04-14 20:59 | 46.31104 | 24.14094 | 23928 ft | 397 kts | 255° |
| 2026-04-14 20:59 | 46.30344 | 24.10251 | 23927 ft | 397 kts | 255° |
| 2026-04-14 20:59 | 46.29580 | 24.06397 | 23927 ft | 397 kts | 255° |
| 2026-04-14 21:00 | 46.28818 | 24.02562 | 23934 ft | 397 kts | 255° |
| 2026-04-14 21:00 | 46.28055 | 23.98726 | 23935 ft | 397 kts | 255° |
| 2026-04-14 21:00 | 46.27288 | 23.94883 | 23933 ft | 397 kts | 255° |
| 2026-04-14 21:00 | 46.26532 | 23.91097 | 23935 ft | 397 kts | 255° |
| 2026-04-14 21:01 | 46.25756 | 23.87217 | 23934 ft | 397 kts | 255° |
| 2026-04-14 21:01 | 46.24997 | 23.83437 | 23940 ft | 397 kts | 255° |
| 2026-04-14 21:01 | 46.24228 | 23.79608 | 23932 ft | 397 kts | 255° |
| 2026-04-14 21:01 | 46.23457 | 23.75781 | 23930 ft | 396 kts | 255° |
| 2026-04-14 21:02 | 46.22687 | 23.71962 | 23937 ft | 396 kts | 255° |
| 2026-04-14 21:02 | 46.21916 | 23.68147 | 23937 ft | 396 kts | 255° |
| 2026-04-14 21:02 | 46.21142 | 23.64323 | 23936 ft | 396 kts | 255° |
| 2026-04-14 21:02 | 46.20368 | 23.60509 | 23942 ft | 396 kts | 255° |
| 2026-04-14 21:03 | 46.19592 | 23.56690 | 23938 ft | 396 kts | 255° |
| 2026-04-14 21:03 | 46.18814 | 23.52872 | 23939 ft | 396 kts | 255° |
| 2026-04-14 21:03 | 46.18036 | 23.49061 | 23939 ft | 396 kts | 255° |
| 2026-04-14 21:03 | 46.17257 | 23.45250 | 23937 ft | 395 kts | 255° |
| 2026-04-14 21:04 | 46.16477 | 23.41442 | 23940 ft | 396 kts | 255° |
| 2026-04-14 21:04 | 46.15696 | 23.37637 | 23870 ft | 394 kts | 255° |
| 2026-04-14 21:04 | 46.14921 | 23.33865 | 23473 ft | 392 kts | 255° |
| 2026-04-14 21:04 | 46.14158 | 23.30159 | 22902 ft | 390 kts | 254° |
| 2026-04-14 21:05 | 46.13387 | 23.26425 | 22292 ft | 387 kts | 254° |
| 2026-04-14 21:05 | 46.12619 | 23.22714 | 21674 ft | 385 kts | 254° |
| 2026-04-14 21:05 | 46.11858 | 23.19036 | 21072 ft | 382 kts | 254° |
| 2026-04-14 21:05 | 46.11098 | 23.15375 | 20480 ft | 379 kts | 254° |
| 2026-04-14 21:06 | 46.10343 | 23.11745 | 19893 ft | 377 kts | 254° |
| 2026-04-14 21:06 | 46.09593 | 23.08142 | 19331 ft | 375 kts | 254° |
| 2026-04-14 21:06 | 46.08845 | 23.04560 | 18760 ft | 373 kts | 254° |
| 2026-04-14 21:06 | 46.08101 | 23.00998 | 18169 ft | 371 kts | 254° |
| 2026-04-14 21:07 | 46.07358 | 22.97451 | 17564 ft | 368 kts | 254° |
| 2026-04-14 21:07 | 46.06620 | 22.93931 | 16984 ft | 366 kts | 254° |
| 2026-04-14 21:07 | 46.05886 | 22.90438 | 16413 ft | 363 kts | 253° |
| 2026-04-14 21:07 | 46.05156 | 22.86969 | 15857 ft | 361 kts | 253° |
| 2026-04-14 21:08 | 46.04430 | 22.83525 | 15313 ft | 358 kts | 253° |
| 2026-04-14 21:08 | 46.03712 | 22.80124 | 15046 ft | 353 kts | 253° |
| 2026-04-14 21:08 | 46.02992 | 22.76720 | 14964 ft | 358 kts | 253° |
| 2026-04-14 21:08 | 46.02266 | 22.73295 | 14952 ft | 358 kts | 253° |
| 2026-04-14 21:09 | 46.01540 | 22.69872 | 14953 ft | 357 kts | 253° |
| 2026-04-14 21:09 | 46.00822 | 22.66494 | 14953 ft | 357 kts | 253° |
| 2026-04-14 21:09 | 46.00095 | 22.63077 | 14948 ft | 358 kts | 253° |
| 2026-04-14 21:09 | 45.99356 | 22.59617 | 14946 ft | 357 kts | 253° |
| 2026-04-14 21:10 | 45.98636 | 22.56247 | 14945 ft | 357 kts | 253° |
| 2026-04-14 21:10 | 45.97905 | 22.52832 | 14946 ft | 357 kts | 253° |
| 2026-04-14 21:10 | 45.97174 | 22.49418 | 14942 ft | 357 kts | 253° |
| 2026-04-14 21:10 | 45.96443 | 22.46007 | 14944 ft | 357 kts | 253° |
| 2026-04-14 21:11 | 45.95710 | 22.42594 | 14939 ft | 357 kts | 253° |
| 2026-04-14 21:11 | 45.95100 | 22.39143 | 14941 ft | 357 kts | 260° |
| 2026-04-14 21:11 | 45.94685 | 22.35628 | 14933 ft | 356 kts | 261° |
| 2026-04-14 21:11 | 45.94282 | 22.32125 | 14725 ft | 354 kts | 261° |
| 2026-04-14 21:12 | 45.93879 | 22.28646 | 14319 ft | 353 kts | 261° |
| 2026-04-14 21:12 | 45.93473 | 22.25181 | 13798 ft | 351 kts | 260° |
| 2026-04-14 21:12 | 45.93065 | 22.21736 | 13251 ft | 348 kts | 260° |
| 2026-04-14 21:12 | 45.92659 | 22.18326 | 12755 ft | 344 kts | 260° |
| 2026-04-14 21:13 | 45.92256 | 22.14960 | 12468 ft | 342 kts | 260° |
| 2026-04-14 21:13 | 45.91854 | 22.11616 | 12213 ft | 344 kts | 260° |
| 2026-04-14 21:13 | 45.91448 | 22.08243 | 11958 ft | 341 kts | 260° |
| 2026-04-14 21:14 | 45.90641 | 22.01569 | 11449 ft | 337 kts | 260° |
| 2026-04-14 21:14 | 45.90239 | 21.98255 | 11218 ft | 336 kts | 260° |
| 2026-04-14 21:14 | 45.89837 | 21.94954 | 10967 ft | 335 kts | 260° |
| 2026-04-14 21:14 | 45.89437 | 21.91668 | 10713 ft | 333 kts | 260° |
| 2026-04-14 21:15 | 45.89037 | 21.88401 | 10503 ft | 331 kts | 260° |
| 2026-04-14 21:15 | 45.88645 | 21.85200 | 10402 ft | 319 kts | 260° |
| 2026-04-14 21:15 | 45.88268 | 21.82125 | 10298 ft | 307 kts | 260° |
| 2026-04-14 21:15 | 45.87904 | 21.79174 | 10191 ft | 294 kts | 260° |
| 2026-04-14 21:16 | 45.87555 | 21.76347 | 10083 ft | 281 kts | 260° |
| 2026-04-14 21:16 | 45.87222 | 21.73652 | 9976 ft | 268 kts | 260° |
| 2026-04-14 21:16 | 45.86901 | 21.71064 | 9779 ft | 260 kts | 260° |
| 2026-04-14 21:16 | 45.86586 | 21.68518 | 9413 ft | 259 kts | 260° |
| 2026-04-14 21:17 | 45.86271 | 21.65983 | 9036 ft | 258 kts | 259° |
| 2026-04-14 21:17 | 45.85956 | 21.63457 | 8673 ft | 257 kts | 259° |
| 2026-04-14 21:17 | 45.85643 | 21.60941 | 8326 ft | 255 kts | 259° |
| 2026-04-14 21:17 | 45.85138 | 21.58509 | 7960 ft | 254 kts | 245° |
| 2026-04-14 21:18 | 45.84233 | 21.56348 | 7616 ft | 252 kts | 233° |
| 2026-04-14 21:18 | 45.83191 | 21.54333 | 7284 ft | 251 kts | 233° |
| 2026-04-14 21:18 | 45.82181 | 21.52345 | 7017 ft | 248 kts | 233° |
| 2026-04-14 21:18 | 45.81169 | 21.50342 | 6716 ft | 249 kts | 233° |
| 2026-04-14 21:19 | 45.80158 | 21.48338 | 6406 ft | 248 kts | 233° |
| 2026-04-14 21:19 | 45.79148 | 21.46338 | 6031 ft | 248 kts | 233° |
| 2026-04-14 21:19 | 45.78133 | 21.44331 | 5666 ft | 248 kts | 233° |
| 2026-04-14 21:19 | 45.77119 | 21.42328 | 5308 ft | 249 kts | 232° |
| 2026-04-14 21:20 | 45.76106 | 21.40330 | 5026 ft | 246 kts | 232° |
| 2026-04-14 21:20 | 45.75092 | 21.38330 | 4947 ft | 250 kts | 232° |
| 2026-04-14 21:20 | 45.74070 | 21.36319 | 4944 ft | 249 kts | 232° |
| 2026-04-14 21:20 | 45.73050 | 21.34313 | 4945 ft | 249 kts | 232° |
| 2026-04-14 21:21 | 45.72041 | 21.32301 | 4938 ft | 249 kts | 237° |
| 2026-04-14 21:21 | 45.71513 | 21.29950 | 4939 ft | 252 kts | 267° |
| 2026-04-14 21:21 | 45.71821 | 21.27487 | 4945 ft | 255 kts | 288° |
| 2026-04-14 21:21 | 45.72420 | 21.25132 | 4940 ft | 255 kts | 290° |
| 2026-04-14 21:22 | 45.73060 | 21.22778 | 4870 ft | 253 kts | 290° |
| 2026-04-14 21:22 | 45.73688 | 21.20434 | 4603 ft | 252 kts | 290° |
| 2026-04-14 21:22 | 45.74524 | 21.17200 | 4163 ft | 251 kts | 289° |
| 2026-04-14 21:22 | 45.76865 | 21.07823 | 3937 ft | 251 kts | 289° |
| 2026-04-14 21:23 | 45.79211 | 20.98368 | 3930 ft | 252 kts | 289° |
| 2026-04-14 21:23 | 45.81552 | 20.88895 | 3926 ft | 252 kts | 289° |
| 2026-04-14 21:23 | 45.83892 | 20.79392 | 3922 ft | 253 kts | 288° |
| 2026-04-14 21:23 | 45.89299 | 20.75833 | 3922 ft | 247 kts | 30° |
| 2026-04-14 21:24 | 45.93822 | 20.82191 | 3924 ft | 236 kts | 96° |
| 2026-04-14 21:24 | 45.93328 | 20.84679 | 3919 ft | 236 kts | 112° |
| 2026-04-14 21:24 | 45.92728 | 20.86861 | 3921 ft | 235 kts | 112° |
| 2026-04-14 21:24 | 45.92133 | 20.89054 | 3921 ft | 235 kts | 111° |
| 2026-04-14 21:25 | 45.91560 | 20.91258 | 3924 ft | 236 kts | 111° |
| 2026-04-14 21:25 | 45.91002 | 20.93472 | 3926 ft | 236 kts | 110° |
| 2026-04-14 21:25 | 45.90452 | 20.95689 | 3931 ft | 236 kts | 110° |
| 2026-04-14 21:25 | 45.89905 | 20.97913 | 3926 ft | 236 kts | 110° |
| 2026-04-14 21:26 | 45.89357 | 21.00138 | 3931 ft | 236 kts | 110° |
| 2026-04-14 21:26 | 45.88809 | 21.02361 | 3932 ft | 236 kts | 110° |
| 2026-04-14 21:26 | 45.88260 | 21.04584 | 3934 ft | 236 kts | 110° |
| 2026-04-14 21:26 | 45.87711 | 21.06802 | 3934 ft | 236 kts | 110° |
| 2026-04-14 21:27 | 45.87159 | 21.09026 | 3936 ft | 236 kts | 110° |
| 2026-04-14 21:27 | 45.86607 | 21.11251 | 3938 ft | 237 kts | 110° |
| 2026-04-14 21:27 | 45.86054 | 21.13477 | 3935 ft | 237 kts | 110° |
| 2026-04-14 21:27 | 45.85506 | 21.15673 | 3936 ft | 237 kts | 110° |
| 2026-04-14 21:28 | 45.84936 | 21.17939 | 3554 ft | 242 kts | 110° |
| 2026-04-14 21:28 | 45.84347 | 21.20136 | 2742 ft | 231 kts | 112° |
| 2026-04-14 21:28 | 45.83782 | 21.22210 | 2049 ft | 217 kts | 110° |
| 2026-04-14 21:28 | 45.83308 | 21.24175 | 1606 ft | 197 kts | 111° |
| 2026-04-14 21:29 | 45.82880 | 21.25963 | 1292 ft | 180 kts | 109° |
| 2026-04-14 21:29 | 45.82622 | 21.27061 | 1077 ft | 173 kts | 109° |
| 2026-04-14 21:29 | 45.82254 | 21.28641 | 762 ft | 162 kts | 109° |
| 2026-04-14 21:29 | 45.81901 | 21.30112 | 563 ft | 149 kts | 109° |
| 2026-04-14 21:30 | 45.81566 | 21.31446 | 442 ft | 144 kts | 109° |
| 2026-04-14 21:30 | 45.81236 | 21.32743 | 350 ft | 131 kts | 109° |
| 2026-04-14 21:30 | 45.81046 | 21.33499 | 351 ft | 27 kts | 116° |
| 2026-04-14 21:30 | 45.80951 | 21.33558 | 352 ft | 20 kts | 189° |
| 2026-04-14 21:31 | 45.80867 | 21.33416 | 344 ft | 21 kts | 282° |
| 2026-04-14 21:31 | 45.80915 | 21.33209 | 346 ft | 23 kts | 289° |
| 2026-04-14 21:31 | 45.80970 | 21.32984 | 352 ft | 25 kts | 289° |
| 2026-04-14 21:31 | 45.81035 | 21.32750 | 346 ft | 26 kts | 288° |
| 2026-04-14 21:32 | 45.81093 | 21.32502 | 343 ft | 18 kts | 285° |
| 2026-04-14 21:32 | 45.81094 | 21.32475 | 341 ft | 3 kts | 265° |
| 2026-04-14 21:32 | 45.81078 | 21.32427 | 349 ft | 8 kts | 238° |
| 2026-04-14 21:32 | 45.81066 | 21.32392 | 345 ft | 0 kts | 266° |
| 2026-04-14 21:33 | 45.81071 | 21.32317 | 349 ft | 0 kts | 264° |
| 2026-04-14 21:33 | 45.81052 | 21.32293 | 345 ft | 10 kts | 210° |
| 2026-04-14 21:33 | 45.81026 | 21.32282 | 337 ft | 0 kts | 193° |